createdAt,value
2023-04-26T00:02:15.922Z,6.42
2023-04-26T00:04:42.443Z,6.41
2023-04-26T00:07:08.915Z,6.41
2023-04-26T00:09:35.373Z,6.42
2023-04-26T00:12:01.881Z,6.44
2023-04-26T00:14:28.332Z,6.45
2023-04-26T00:16:54.749Z,6.45
2023-04-26T00:19:21.382Z,6.44
2023-04-26T00:21:47.813Z,6.44
2023-04-26T00:24:14.257Z,6.45
2023-04-26T00:26:40.700Z,6.45
2023-04-26T00:29:07.215Z,6.42
2023-04-26T00:31:33.805Z,6.45
2023-04-26T00:34:00.740Z,6.44
2023-04-26T00:36:27.736Z,6.44
2023-04-26T00:38:54.284Z,6.34
2023-04-26T00:41:22.010Z,6.43
2023-04-26T00:43:48.471Z,6.43
2023-04-26T00:46:15.322Z,6.40
2023-04-26T00:48:42.359Z,6.37
2023-04-26T00:51:09.261Z,6.35
2023-04-26T00:53:36.264Z,6.34
2023-04-26T00:56:03.481Z,6.32
2023-04-26T00:58:30.388Z,6.30
2023-04-26T01:00:56.929Z,6.29
2023-04-26T01:03:23.787Z,6.21
2023-04-26T01:05:50.673Z,6.20
2023-04-26T01:08:20.759Z,6.16
2023-04-26T01:10:49.822Z,6.11
2023-04-26T01:13:16.904Z,6.07
2023-04-26T01:15:45.869Z,5.96
2023-04-26T01:18:13.883Z,5.91
2023-04-26T01:20:41.724Z,5.77
2023-04-26T01:23:09.079Z,5.78
2023-04-26T01:25:35.607Z,5.75
2023-04-26T01:28:02.114Z,5.67
2023-04-26T01:30:28.605Z,5.60
2023-04-26T01:32:55.564Z,5.55
2023-04-26T01:35:22.049Z,5.53
2023-04-26T01:37:48.479Z,5.53
2023-04-26T01:40:14.958Z,5.54
2023-04-26T01:42:41.422Z,5.54
2023-04-26T01:45:08.048Z,5.53
2023-04-26T01:47:52.718Z,5.54
2023-04-26T01:50:19.225Z,5.54
2023-04-26T01:52:46.126Z,5.55
2023-04-26T01:55:12.568Z,5.56
2023-04-26T01:57:39.067Z,5.57
2023-04-26T02:00:06.936Z,5.59
2023-04-26T02:02:39.857Z,5.58
2023-04-26T02:05:09.571Z,5.58
2023-04-26T02:07:35.993Z,5.59
2023-04-26T02:10:03.454Z,5.57
2023-04-26T02:12:29.983Z,5.54
2023-04-26T02:14:56.587Z,5.52
2023-04-26T02:17:23.606Z,5.50
2023-04-26T02:19:50.110Z,5.50
2023-04-26T02:22:17.418Z,5.46
2023-04-26T02:24:43.882Z,5.44
2023-04-26T02:27:11.142Z,5.40
2023-04-26T02:29:44.256Z,5.36
2023-04-26T02:32:14.749Z,5.34
2023-04-26T02:34:41.949Z,5.27
2023-04-26T02:37:09.001Z,5.25
2023-04-26T02:39:35.920Z,5.27
2023-04-26T02:42:02.433Z,5.25
2023-04-26T02:44:30.968Z,5.26
2023-04-26T02:46:57.969Z,5.24
2023-04-26T02:49:24.766Z,5.23
2023-04-26T02:51:51.760Z,5.19
2023-04-26T02:54:18.609Z,5.17
2023-04-26T02:56:45.093Z,5.16
2023-04-26T02:59:11.526Z,5.15
2023-04-26T03:01:38.024Z,5.16
2023-04-26T03:04:05.259Z,5.12
2023-04-26T03:06:33.926Z,5.09
2023-04-26T03:09:00.882Z,5.06
2023-04-26T03:11:28.001Z,4.96
2023-04-26T03:13:54.489Z,5.01
2023-04-26T03:16:21.528Z,4.98
2023-04-26T03:18:48.279Z,4.97
2023-04-26T03:21:14.820Z,4.97
2023-04-26T03:23:41.943Z,4.95
2023-04-26T03:26:09.224Z,4.96
2023-04-26T03:28:35.786Z,4.93
2023-04-26T03:31:02.834Z,4.91
2023-04-26T03:33:32.093Z,4.85
2023-04-26T03:35:58.564Z,4.78
2023-04-26T03:38:25.152Z,4.77
2023-04-26T03:40:52.128Z,4.78
2023-04-26T03:43:18.632Z,4.81
2023-04-26T03:45:48.776Z,4.81
2023-04-26T03:48:16.835Z,4.83
2023-04-26T03:50:45.988Z,4.86
2023-04-26T03:53:12.885Z,4.82
2023-04-26T03:55:39.382Z,4.85
2023-04-26T03:58:07.883Z,4.82
2023-04-26T04:00:37.344Z,4.82
2023-04-26T04:03:04.151Z,4.81
2023-04-26T04:05:31.549Z,4.78
2023-04-26T04:07:58.895Z,4.80
2023-04-26T04:10:25.859Z,4.80
2023-04-26T04:12:53.338Z,4.83
2023-04-26T04:15:21.171Z,4.83
2023-04-26T04:17:48.621Z,4.83
2023-04-26T04:20:15.222Z,4.83
2023-04-26T04:22:42.236Z,4.83
2023-04-26T04:25:13.689Z,4.86
2023-04-26T04:27:42.593Z,4.85
2023-04-26T04:30:09.781Z,4.80
2023-04-26T04:32:36.925Z,4.80
2023-04-26T04:35:03.651Z,4.76
2023-04-26T04:37:32.979Z,4.71
2023-04-26T04:40:00.111Z,4.69
2023-04-26T04:42:29.524Z,4.65
2023-04-26T04:44:59.595Z,4.69
2023-04-26T04:47:27.286Z,4.71
2023-04-26T04:49:53.899Z,4.78
2023-04-26T04:52:23.725Z,4.78
2023-04-26T04:54:50.340Z,4.85
2023-04-26T04:57:16.999Z,4.90
2023-04-26T04:59:45.123Z,5.00
2023-04-26T05:02:11.810Z,5.04
2023-04-26T05:04:38.644Z,5.10
2023-04-26T05:07:06.579Z,5.14
2023-04-26T05:09:33.928Z,5.24
2023-04-26T05:12:00.824Z,5.28
2023-04-26T05:14:27.391Z,5.35
2023-04-26T05:16:54.592Z,5.38
2023-04-26T05:19:22.149Z,5.41
2023-04-26T05:21:48.626Z,5.45
2023-04-26T05:24:15.058Z,5.48
2023-04-26T05:26:42.386Z,5.52
2023-04-26T05:29:31.087Z,5.57
2023-04-26T05:31:57.693Z,5.60
2023-04-26T05:34:47.394Z,5.62
2023-04-26T05:37:17.209Z,5.65
2023-04-26T05:39:44.205Z,5.69
2023-04-26T05:42:11.050Z,5.73
2023-04-26T05:44:38.519Z,5.73
2023-04-26T05:47:05.038Z,5.72
2023-04-26T05:49:31.498Z,5.71
2023-04-26T05:51:59.551Z,5.72
2023-04-26T05:54:26.071Z,5.75
2023-04-26T05:56:52.584Z,5.78
2023-04-26T05:59:19.063Z,5.86
2023-04-26T06:01:45.796Z,5.86
2023-04-26T06:04:12.541Z,5.89
2023-04-26T06:06:48.252Z,5.99
2023-04-26T06:09:14.688Z,6.06
2023-04-26T06:11:41.482Z,6.16
2023-04-26T06:14:23.113Z,6.22
2023-04-26T06:16:56.925Z,6.30
2023-04-26T06:19:23.492Z,6.35
2023-04-26T06:21:52.117Z,6.39
2023-04-26T06:24:18.551Z,6.48
2023-04-26T06:26:45.351Z,6.60
2023-04-26T06:29:11.895Z,6.68
2023-04-26T06:31:38.448Z,6.79
2023-04-26T06:34:05.000Z,6.96
2023-04-26T06:36:32.776Z,7.16
2023-04-26T06:38:59.471Z,7.28
2023-04-26T06:41:26.028Z,7.43
2023-04-26T06:43:53.062Z,7.55
2023-04-26T06:46:21.167Z,7.55
2023-04-26T06:48:56.526Z,7.51
2023-04-26T06:51:24.886Z,7.53
2023-04-26T06:53:52.472Z,7.59
2023-04-26T06:56:19.196Z,7.57
2023-04-26T06:59:06.547Z,7.57
2023-04-26T07:01:34.835Z,7.58
2023-04-26T07:04:07.919Z,7.58
2023-04-26T07:06:34.800Z,7.60
2023-04-26T07:09:02.739Z,7.65
2023-04-26T07:11:29.259Z,7.65
2023-04-26T07:13:55.801Z,7.57
2023-04-26T07:16:22.649Z,7.58
2023-04-26T07:18:49.242Z,7.61
2023-04-26T07:21:16.317Z,7.56
2023-04-26T07:23:42.768Z,7.57
2023-04-26T07:26:11.456Z,7.61
2023-04-26T07:28:37.979Z,7.64
2023-04-26T07:31:06.552Z,7.64
2023-04-26T07:33:34.517Z,7.71
2023-04-26T07:36:01.659Z,7.84
2023-04-26T07:38:28.185Z,7.93
2023-04-26T07:40:55.318Z,8.08
2023-04-26T07:43:22.694Z,8.24
2023-04-26T07:45:49.240Z,8.43
2023-04-26T07:48:15.796Z,8.51
2023-04-26T07:50:42.284Z,8.59
2023-04-26T07:53:08.714Z,8.63
2023-04-26T07:55:35.199Z,8.62
2023-04-26T07:58:01.586Z,8.69
2023-04-26T08:00:28.058Z,8.77
2023-04-26T08:02:54.889Z,8.79
2023-04-26T08:05:22.178Z,8.73
2023-04-26T08:07:48.721Z,8.73
2023-04-26T08:10:15.214Z,8.73
2023-04-26T08:12:41.735Z,8.77
2023-04-26T08:15:09.105Z,8.77
2023-04-26T08:17:35.600Z,8.75
2023-04-26T08:20:02.197Z,8.84
2023-04-26T08:22:28.855Z,8.92
2023-04-26T08:24:55.984Z,9.05
2023-04-26T08:27:22.767Z,9.14
2023-04-26T08:29:49.215Z,9.18
2023-04-26T08:32:15.667Z,9.12
2023-04-26T08:34:42.546Z,9.04
2023-04-26T08:37:09.156Z,9.11
2023-04-26T08:39:35.678Z,9.29
2023-04-26T08:42:15.997Z,9.59
2023-04-26T08:44:44.058Z,9.73
2023-04-26T08:47:18.179Z,9.72
2023-04-26T08:49:52.924Z,9.81
2023-04-26T08:52:23.226Z,9.85
2023-04-26T08:54:53.555Z,9.87
2023-04-26T08:57:21.179Z,9.89
2023-04-26T08:59:48.053Z,9.96
2023-04-26T09:02:19.452Z,9.91
2023-04-26T09:04:47.298Z,9.99
2023-04-26T09:07:39.650Z,10.19
2023-04-26T09:10:06.709Z,10.33
2023-04-26T09:12:33.314Z,10.41
2023-04-26T09:15:01.061Z,10.34
2023-04-26T09:17:32.590Z,10.21
2023-04-26T09:20:00.475Z,10.12
2023-04-26T09:22:32.692Z,10.09
2023-04-26T09:25:00.233Z,10.02
2023-04-26T09:27:37.929Z,9.92
2023-04-26T09:30:05.877Z,9.84
2023-04-26T09:33:03.989Z,9.75
2023-04-26T09:35:34.436Z,9.71
2023-04-26T09:38:12.394Z,9.88
2023-04-26T09:40:49.701Z,9.93
2023-04-26T09:43:18.013Z,9.84
2023-04-26T09:45:56.162Z,9.89
2023-04-26T09:48:31.379Z,9.80
2023-04-26T09:51:00.027Z,9.77
2023-04-26T09:53:34.555Z,9.59
2023-04-26T09:56:15.681Z,9.73
2023-04-26T09:58:52.490Z,10.19
2023-04-26T10:01:19.863Z,10.48
2023-04-26T10:03:47.363Z,10.76
2023-04-26T10:06:14.559Z,11.00
2023-04-26T10:08:41.137Z,11.14
2023-04-26T10:11:09.775Z,11.13
2023-04-26T10:13:36.329Z,11.00
2023-04-26T10:16:03.946Z,10.84
2023-04-26T10:18:31.594Z,10.78
2023-04-26T10:21:18.013Z,10.78
2023-04-26T10:23:45.172Z,10.80
2023-04-26T10:26:49.495Z,10.81
2023-04-26T10:29:16.059Z,10.80
2023-04-26T10:32:01.644Z,10.76
2023-04-26T10:34:31.219Z,10.80
2023-04-26T10:37:08.646Z,10.92
2023-04-26T10:39:36.431Z,10.92
2023-04-26T10:42:27.256Z,10.85
2023-04-26T10:44:55.669Z,10.80
2023-04-26T10:47:34.295Z,10.79
2023-04-26T10:50:05.682Z,10.78
2023-04-26T10:52:33.067Z,10.84
2023-04-26T10:55:00.651Z,10.95
2023-04-26T10:57:50.768Z,11.01
2023-04-26T11:00:29.812Z,10.88
2023-04-26T11:03:03.068Z,10.95
2023-04-26T11:05:34.419Z,11.00
2023-04-26T11:08:07.046Z,10.98
2023-04-26T11:10:35.695Z,10.96
2023-04-26T11:13:03.962Z,11.01
2023-04-26T11:15:34.020Z,11.09
2023-04-26T11:18:06.558Z,11.21
2023-04-26T11:20:33.947Z,11.26
2023-04-26T11:23:01.057Z,11.43
2023-04-26T11:25:28.896Z,11.96
2023-04-26T11:28:00.392Z,12.59
2023-04-26T11:30:28.857Z,13.12
2023-04-26T11:32:55.404Z,13.54
2023-04-26T11:35:23.350Z,13.62
2023-04-26T11:37:51.868Z,13.24
2023-04-26T11:40:18.768Z,12.84
2023-04-26T11:42:45.465Z,12.50
2023-04-26T11:45:12.204Z,12.24
2023-04-26T11:47:40.290Z,12.08
2023-04-26T11:50:08.830Z,11.91
2023-04-26T11:52:35.956Z,11.82
2023-04-26T11:55:04.715Z,11.92
2023-04-26T11:57:32.870Z,12.07
2023-04-26T12:00:14.133Z,12.42
2023-04-26T12:02:44.718Z,12.72
2023-04-26T12:05:11.450Z,12.98
2023-04-26T12:07:38.160Z,13.18
2023-04-26T12:10:15.651Z,13.42
2023-04-26T12:12:51.728Z,13.52
2023-04-26T12:15:22.344Z,13.53
2023-04-26T12:18:13.905Z,13.59
2023-04-26T12:20:42.814Z,13.60
2023-04-26T12:23:11.371Z,13.64
2023-04-26T12:25:40.627Z,13.68
2023-04-26T12:28:12.365Z,14.14
2023-04-26T12:30:40.308Z,14.57
2023-04-26T12:33:16.352Z,14.32
2023-04-26T12:35:44.246Z,14.00
2023-04-26T12:38:12.266Z,13.88
2023-04-26T12:40:39.448Z,13.78
2023-04-26T12:43:05.930Z,13.71
2023-04-26T12:45:32.572Z,13.73
2023-04-26T12:47:59.194Z,13.75
2023-04-26T12:50:26.088Z,13.59
2023-04-26T12:52:52.891Z,13.52
2023-04-26T12:55:19.934Z,13.39
2023-04-26T12:57:46.674Z,13.29
2023-04-26T13:00:17.536Z,13.34
2023-04-26T13:02:44.762Z,13.23
2023-04-26T13:05:11.790Z,13.15
2023-04-26T13:07:39.920Z,13.00
2023-04-26T13:10:09.186Z,12.97
2023-04-26T13:12:38.572Z,12.99
2023-04-26T13:15:08.359Z,13.13
2023-04-26T13:17:36.855Z,13.19
2023-04-26T13:20:06.318Z,13.07
2023-04-26T13:22:33.377Z,12.92
2023-04-26T13:24:59.881Z,12.72
2023-04-26T13:27:28.454Z,12.70
2023-04-26T13:29:56.995Z,12.71
2023-04-26T13:32:23.456Z,12.64
2023-04-26T13:34:50.056Z,12.58
2023-04-26T13:37:17.725Z,12.51
2023-04-26T13:39:44.535Z,12.51
2023-04-26T13:42:11.201Z,12.51
2023-04-26T13:44:37.749Z,12.54
2023-04-26T13:47:04.242Z,12.57
2023-04-26T13:49:30.652Z,12.52
2023-04-26T13:51:57.625Z,12.41
2023-04-26T13:54:26.033Z,12.47
2023-04-26T13:56:53.511Z,12.51
2023-04-26T13:59:20.432Z,12.51
2023-04-26T14:01:46.932Z,12.47
2023-04-26T14:04:13.760Z,12.40
2023-04-26T14:06:40.616Z,12.35
2023-04-26T14:09:07.080Z,12.32
2023-04-26T14:11:33.506Z,12.48
2023-04-26T14:13:59.927Z,12.68
2023-04-26T14:16:26.741Z,12.76
2023-04-26T14:18:53.401Z,12.82
2023-04-26T14:21:20.024Z,13.01
2023-04-26T14:23:46.559Z,13.56
2023-04-26T14:26:13.082Z,13.71
2023-04-26T14:28:40.979Z,13.78
2023-04-26T14:31:08.281Z,13.87
2023-04-26T14:33:35.229Z,14.26
2023-04-26T14:36:01.756Z,14.35
2023-04-26T14:38:28.468Z,14.26
2023-04-26T14:40:54.962Z,14.09
2023-04-26T14:43:21.407Z,13.97
2023-04-26T14:45:48.064Z,13.89
2023-04-26T14:48:14.853Z,13.83
2023-04-26T14:50:41.785Z,13.83
2023-04-26T14:53:08.703Z,13.87
2023-04-26T14:55:35.606Z,13.99
2023-04-26T14:58:02.396Z,14.06
2023-04-26T15:00:30.347Z,14.43
2023-04-26T15:02:56.974Z,14.44
2023-04-26T15:05:24.431Z,14.34
2023-04-26T15:07:51.887Z,14.19
2023-04-26T15:10:18.572Z,14.26
2023-04-26T15:12:45.089Z,14.69
2023-04-26T15:15:11.957Z,15.28
2023-04-26T15:17:38.601Z,15.61
2023-04-26T15:20:06.387Z,15.67
2023-04-26T15:22:34.875Z,15.69
2023-04-26T15:25:03.485Z,15.48
2023-04-26T15:27:30.012Z,15.66
2023-04-26T15:29:56.788Z,16.23
2023-04-26T15:32:23.305Z,16.65
2023-04-26T15:34:50.384Z,17.05
2023-04-26T15:37:17.082Z,17.46
2023-04-26T15:39:43.626Z,17.78
2023-04-26T15:42:11.138Z,17.94
2023-04-26T15:44:37.593Z,18.13
2023-04-26T15:47:04.161Z,18.02
2023-04-26T15:49:30.974Z,17.82
2023-04-26T15:51:57.490Z,17.88
2023-04-26T15:54:24.170Z,17.76
2023-04-26T15:56:50.699Z,17.74
2023-04-26T15:59:17.126Z,17.74
2023-04-26T16:01:43.712Z,17.83
2023-04-26T16:04:10.695Z,17.83
2023-04-26T16:06:37.800Z,17.57
2023-04-26T16:09:23.264Z,17.29
2023-04-26T16:11:51.878Z,16.99
2023-04-26T16:14:18.391Z,16.56
2023-04-26T16:16:46.376Z,16.16
2023-04-26T16:19:12.962Z,15.81
2023-04-26T16:21:40.260Z,15.77
2023-04-26T16:24:09.187Z,16.01
2023-04-26T16:26:36.360Z,16.19
2023-04-26T16:29:04.322Z,16.60
2023-04-26T16:31:32.247Z,16.99
2023-04-26T16:33:59.220Z,17.14
2023-04-26T16:36:26.909Z,17.10
2023-04-26T16:38:54.447Z,17.19
2023-04-26T16:41:21.125Z,17.16
2023-04-26T16:43:47.597Z,17.20
2023-04-26T16:46:14.127Z,17.18
2023-04-26T16:48:40.768Z,17.07
2023-04-26T16:51:07.878Z,16.88
2023-04-26T16:53:34.664Z,16.56
2023-04-26T16:56:01.199Z,16.34
2023-04-26T16:58:28.107Z,16.17
2023-04-26T17:00:54.596Z,15.76
2023-04-26T17:03:21.602Z,15.46
2023-04-26T17:05:48.533Z,15.11
2023-04-26T17:08:16.584Z,14.84
2023-04-26T17:10:44.185Z,14.55
2023-04-26T17:13:12.649Z,14.30
2023-04-26T17:15:40.782Z,14.05
2023-04-26T17:18:08.509Z,13.88
2023-04-26T17:20:35.798Z,13.74
2023-04-26T17:23:04.121Z,13.53
2023-04-26T17:25:30.959Z,13.33
2023-04-26T17:27:57.611Z,13.13
2023-04-26T17:30:24.197Z,12.99
2023-04-26T17:32:50.834Z,12.86
2023-04-26T17:35:17.443Z,12.77
2023-04-26T17:37:49.535Z,12.67
2023-04-26T17:40:17.898Z,12.67
2023-04-26T17:42:44.857Z,12.68
2023-04-26T17:45:14.242Z,12.65
2023-04-26T17:47:41.540Z,12.57
2023-04-26T17:50:09.388Z,12.49
2023-04-26T17:52:36.215Z,12.41
2023-04-26T17:55:03.825Z,12.44
2023-04-26T17:57:30.315Z,12.36
2023-04-26T17:59:56.926Z,12.27
2023-04-26T18:02:23.988Z,12.16
2023-04-26T18:04:50.817Z,12.10
2023-04-26T18:07:17.620Z,12.06
2023-04-26T18:09:44.045Z,12.04
2023-04-26T18:12:10.530Z,12.01
2023-04-26T18:14:44.208Z,11.94
2023-04-26T18:17:12.405Z,11.86
2023-04-26T18:19:39.626Z,11.73
2023-04-26T18:22:07.202Z,11.67
2023-04-26T18:24:37.029Z,11.59
2023-04-26T18:27:03.774Z,11.49
2023-04-26T18:29:30.626Z,11.33
2023-04-26T18:31:57.176Z,11.29
2023-04-26T18:34:23.862Z,11.23
2023-04-26T18:36:50.402Z,11.20
2023-04-26T18:39:16.944Z,11.07
2023-04-26T18:41:43.462Z,11.02
2023-04-26T18:44:15.635Z,10.94
2023-04-26T18:46:43.073Z,10.89
2023-04-26T18:49:10.176Z,10.86
2023-04-26T18:51:36.725Z,10.83
2023-04-26T18:54:03.684Z,10.77
2023-04-26T18:56:31.558Z,10.72
2023-04-26T18:58:58.379Z,10.71
2023-04-26T19:01:25.023Z,10.68
2023-04-26T19:03:51.658Z,10.66
2023-04-26T19:06:18.324Z,10.64
2023-04-26T19:08:45.049Z,10.62
2023-04-26T19:11:12.398Z,10.59
2023-04-26T19:13:42.783Z,10.56
2023-04-26T19:16:10.393Z,10.52
2023-04-26T19:18:37.169Z,10.51
2023-04-26T19:21:05.117Z,10.49
2023-04-26T19:23:31.628Z,10.47
2023-04-26T19:26:14.493Z,10.37
2023-04-26T19:28:40.960Z,10.43
2023-04-26T19:31:07.527Z,10.43
2023-04-26T19:33:34.139Z,10.41
2023-04-26T19:36:00.604Z,10.41
2023-04-26T19:38:27.086Z,10.41
2023-04-26T19:40:53.516Z,10.40
2023-04-26T19:43:20.409Z,10.36
2023-04-26T19:45:46.868Z,10.34
2023-04-26T19:48:13.366Z,10.31
2023-04-26T19:50:45.137Z,10.33
2023-04-26T19:53:13.410Z,10.32
2023-04-26T19:55:41.079Z,10.27
2023-04-26T19:58:08.069Z,10.22
2023-04-26T20:00:38.574Z,10.19
2023-04-26T20:03:05.522Z,10.11
2023-04-26T20:05:32.191Z,10.06
2023-04-26T20:07:58.653Z,10.07
2023-04-26T20:10:25.276Z,10.07
2023-04-26T20:12:51.967Z,10.00
2023-04-26T20:15:18.583Z,10.04
2023-04-26T20:17:45.120Z,10.00
2023-04-26T20:20:12.659Z,9.95
2023-04-26T20:22:39.931Z,9.95
2023-04-26T20:25:07.090Z,9.97
2023-04-26T20:27:33.990Z,9.96
2023-04-26T20:30:00.551Z,9.91
2023-04-26T20:32:27.152Z,9.92
2023-04-26T20:34:53.726Z,9.91
2023-04-26T20:37:20.181Z,9.91
2023-04-26T20:39:47.280Z,9.89
2023-04-26T20:42:14.331Z,9.84
2023-04-26T20:44:40.871Z,9.85
2023-04-26T20:47:07.836Z,9.84
2023-04-26T20:49:34.282Z,9.81
2023-04-26T20:52:00.941Z,9.82
2023-04-26T20:54:27.697Z,9.83
2023-04-26T20:56:54.220Z,9.83
2023-04-26T20:59:20.778Z,9.81
2023-04-26T21:01:47.311Z,9.79
2023-04-26T21:04:13.995Z,9.76
2023-04-26T21:06:40.545Z,9.68
2023-04-26T21:09:07.350Z,9.65
2023-04-26T21:11:33.929Z,9.64
2023-04-26T21:14:00.904Z,9.66
2023-04-26T21:16:27.406Z,9.66
2023-04-26T21:18:53.928Z,9.65
2023-04-26T21:21:20.433Z,9.64
2023-04-26T21:23:46.888Z,9.64
2023-04-26T21:26:13.477Z,9.64
2023-04-26T21:28:39.997Z,9.63
2023-04-26T21:31:07.557Z,9.60
2023-04-26T21:33:34.402Z,9.58
2023-04-26T21:36:00.894Z,9.57
2023-04-26T21:38:27.534Z,9.56
2023-04-26T21:40:53.965Z,9.56
2023-04-26T21:43:21.632Z,9.50
2023-04-26T21:45:50.103Z,9.54
2023-04-26T21:48:16.798Z,9.50
2023-04-26T21:50:43.542Z,9.50
2023-04-26T21:53:09.978Z,9.49
2023-04-26T21:55:36.411Z,9.47
2023-04-26T21:58:02.815Z,9.44
2023-04-26T22:00:29.534Z,9.43
2023-04-26T22:03:02.852Z,9.38
2023-04-26T22:05:29.720Z,9.42
2023-04-26T22:07:56.160Z,9.37
2023-04-26T22:10:22.718Z,9.29
2023-04-26T22:12:49.228Z,9.22
2023-04-26T22:15:16.223Z,9.17
2023-04-26T22:17:42.779Z,9.17
2023-04-26T22:20:09.896Z,9.13
2023-04-26T22:22:36.501Z,9.10
2023-04-26T22:25:03.137Z,9.05
2023-04-26T22:27:30.270Z,8.99
2023-04-26T22:29:56.740Z,8.98
2023-04-26T22:32:23.764Z,8.93
2023-04-26T22:34:50.204Z,8.89
2023-04-26T22:37:21.247Z,8.88
2023-04-26T22:39:48.717Z,8.88
2023-04-26T22:42:15.265Z,8.88
2023-04-26T22:44:41.989Z,8.88
2023-04-26T22:47:08.428Z,8.88
2023-04-26T22:49:34.835Z,8.81
2023-04-26T22:52:07.786Z,8.82
2023-04-26T22:54:38.541Z,8.81
2023-04-26T22:57:07.269Z,8.79
2023-04-26T22:59:36.606Z,8.76
2023-04-26T23:02:03.088Z,8.76
2023-04-26T23:04:29.712Z,8.77
2023-04-26T23:06:56.328Z,8.76
2023-04-26T23:09:22.846Z,8.77
2023-04-26T23:11:49.346Z,8.75
2023-04-26T23:14:15.970Z,8.73
2023-04-26T23:16:42.529Z,8.72
2023-04-26T23:19:09.612Z,8.70
2023-04-26T23:21:36.272Z,8.67
2023-04-26T23:24:02.892Z,8.65
2023-04-26T23:26:29.371Z,8.63
2023-04-26T23:28:55.889Z,8.64
2023-04-26T23:31:22.384Z,8.63
2023-04-26T23:33:48.816Z,8.60
2023-04-26T23:36:15.275Z,8.57
2023-04-26T23:38:41.784Z,8.53
2023-04-26T23:41:08.351Z,8.49
2023-04-26T23:43:34.797Z,8.45
2023-04-26T23:46:01.365Z,8.44
2023-04-26T23:48:27.839Z,8.43
2023-04-26T23:50:54.333Z,8.40
2023-04-26T23:53:20.840Z,8.37
2023-04-26T23:55:47.372Z,8.34
2023-04-26T23:58:13.965Z,8.30
